sensor_id;sensor_type;location;lat;lon;timestamp;pressure;altitude;pressure_sealevel;temperature;humidity
49063;BME280;34876;51.464;-0.150;2022-09-09T00:03:44;100154.36;;;23.25;51.58
49063;BME280;34876;51.464;-0.150;2022-09-09T00:06:23;100154.22;;;23.25;51.57
49063;BME280;34876;51.464;-0.150;2022-09-09T00:09:01;100153.52;;;23.25;51.58
49063;BME280;34876;51.464;-0.150;2022-09-09T00:11:36;100149.17;;;23.25;51.58
49063;BME280;34876;51.464;-0.150;2022-09-09T00:14:14;100146.38;;;23.25;51.58
49063;BME280;34876;51.464;-0.150;2022-09-09T00:16:51;100149.70;;;23.25;51.59
49063;BME280;34876;51.464;-0.150;2022-09-09T00:19:26;100149.91;;;23.25;51.59
49063;BME280;34876;51.464;-0.150;2022-09-09T00:22:04;100151.22;;;23.25;51.55
49063;BME280;34876;51.464;-0.150;2022-09-09T00:24:42;100151.05;;;23.25;51.57
49063;BME280;34876;51.464;-0.150;2022-09-09T00:27:19;100151.21;;;23.25;51.59
49063;BME280;34876;51.464;-0.150;2022-09-09T00:29:53;100144.83;;;23.25;51.59
49063;BME280;34876;51.464;-0.150;2022-09-09T00:32:28;100143.10;;;23.23;51.62
49063;BME280;34876;51.464;-0.150;2022-09-09T00:35:02;100144.35;;;23.22;51.68
49063;BME280;34876;51.464;-0.150;2022-09-09T00:37:32;100146.42;;;23.23;51.65
49063;BME280;34876;51.464;-0.150;2022-09-09T00:40:08;100144.59;;;23.22;51.66
49063;BME280;34876;51.464;-0.150;2022-09-09T00:42:45;100143.57;;;23.22;51.66
49063;BME280;34876;51.464;-0.150;2022-09-09T00:45:25;100146.74;;;23.23;51.66
49063;BME280;34876;51.464;-0.150;2022-09-09T00:47:59;100150.59;;;23.23;51.65
49063;BME280;34876;51.464;-0.150;2022-09-09T00:50:41;100149.01;;;23.23;51.66
49063;BME280;34876;51.464;-0.150;2022-09-09T00:53:27;100146.04;;;23.23;51.67
49063;BME280;34876;51.464;-0.150;2022-09-09T00:56:09;100144.11;;;23.23;51.65
49063;BME280;34876;51.464;-0.150;2022-09-09T00:58:43;100142.30;;;23.23;51.63
49063;BME280;34876;51.464;-0.150;2022-09-09T01:01:15;100140.41;;;23.25;51.59
49063;BME280;34876;51.464;-0.150;2022-09-09T01:03:49;100137.12;;;23.25;51.58
49063;BME280;34876;51.464;-0.150;2022-09-09T01:06:30;100132.83;;;23.23;51.61
49063;BME280;34876;51.464;-0.150;2022-09-09T01:09:07;100130.12;;;23.24;51.61
49063;BME280;34876;51.464;-0.150;2022-09-09T01:11:49;100129.41;;;23.23;51.62
49063;BME280;34876;51.464;-0.150;2022-09-09T01:14:29;100127.94;;;23.22;51.62
49063;BME280;34876;51.464;-0.150;2022-09-09T01:17:03;100125.60;;;23.23;51.61
49063;BME280;34876;51.464;-0.150;2022-09-09T01:19:43;100123.47;;;23.22;51.64
49063;BME280;34876;51.464;-0.150;2022-09-09T01:22:20;100121.08;;;23.22;51.63
49063;BME280;34876;51.464;-0.150;2022-09-09T01:25:13;100123.91;;;23.23;51.62
49063;BME280;34876;51.464;-0.150;2022-09-09T01:27:46;100120.15;;;23.22;51.64
49063;BME280;34876;51.464;-0.150;2022-09-09T01:30:18;100118.74;;;23.23;51.61
49063;BME280;34876;51.464;-0.150;2022-09-09T01:32:49;100120.66;;;23.23;51.60
49063;BME280;34876;51.464;-0.150;2022-09-09T01:35:29;100123.56;;;23.22;51.61
49063;BME280;34876;51.464;-0.150;2022-09-09T01:38:01;100117.12;;;23.22;51.63
49063;BME280;34876;51.464;-0.150;2022-09-09T01:40:30;100120.29;;;23.22;51.65
49063;BME280;34876;51.464;-0.150;2022-09-09T01:43:00;100117.21;;;23.23;51.62
49063;BME280;34876;51.464;-0.150;2022-09-09T01:45:30;100117.83;;;23.23;51.60
49063;BME280;34876;51.464;-0.150;2022-09-09T01:48:00;100118.13;;;23.22;51.65
49063;BME280;34876;51.464;-0.150;2022-09-09T01:50:29;100116.86;;;23.24;51.59
49063;BME280;34876;51.464;-0.150;2022-09-09T01:52:59;100118.82;;;23.22;51.63
49063;BME280;34876;51.464;-0.150;2022-09-09T01:55:32;100119.11;;;23.22;51.64
49063;BME280;34876;51.464;-0.150;2022-09-09T01:58:13;100118.03;;;23.22;51.65
49063;BME280;34876;51.464;-0.150;2022-09-09T02:00:48;100123.04;;;23.23;51.64
49063;BME280;34876;51.464;-0.150;2022-09-09T02:03:25;100121.65;;;23.23;51.61
49063;BME280;34876;51.464;-0.150;2022-09-09T02:06:02;100122.16;;;23.24;51.56
49063;BME280;34876;51.464;-0.150;2022-09-09T02:08:40;100121.81;;;23.24;51.59
49063;BME280;34876;51.464;-0.150;2022-09-09T02:11:13;100125.02;;;23.21;51.65
49063;BME280;34876;51.464;-0.150;2022-09-09T02:13:44;100125.75;;;23.21;51.65
49063;BME280;34876;51.464;-0.150;2022-09-09T02:16:21;100125.15;;;23.21;51.66
49063;BME280;34876;51.464;-0.150;2022-09-09T02:18:54;100124.71;;;23.21;51.65
49063;BME280;34876;51.464;-0.150;2022-09-09T02:21:26;100124.08;;;23.20;51.66
49063;BME280;34876;51.464;-0.150;2022-09-09T02:23:59;100122.55;;;23.20;51.67
49063;BME280;34876;51.464;-0.150;2022-09-09T02:26:31;100128.28;;;23.20;51.67
49063;BME280;34876;51.464;-0.150;2022-09-09T02:29:05;100127.70;;;23.19;51.69
49063;BME280;34876;51.464;-0.150;2022-09-09T02:31:37;100126.02;;;23.19;51.67
49063;BME280;34876;51.464;-0.150;2022-09-09T02:34:09;100124.46;;;23.19;51.67
49063;BME280;34876;51.464;-0.150;2022-09-09T02:36:41;100125.90;;;23.20;51.64
49063;BME280;34876;51.464;-0.150;2022-09-09T02:39:13;100126.10;;;23.19;51.67
49063;BME280;34876;51.464;-0.150;2022-09-09T02:41:42;100129.45;;;23.18;51.71
49063;BME280;34876;51.464;-0.150;2022-09-09T02:44:13;100133.86;;;23.19;51.68
49063;BME280;34876;51.464;-0.150;2022-09-09T02:47:08;100137.44;;;23.18;51.70
49063;BME280;34876;51.464;-0.150;2022-09-09T02:49:47;100136.36;;;23.16;51.70
49063;BME280;34876;51.464;-0.150;2022-09-09T02:52:26;100138.17;;;23.19;51.65
49063;BME280;34876;51.464;-0.150;2022-09-09T02:55:05;100136.69;;;23.18;51.70
49063;BME280;34876;51.464;-0.150;2022-09-09T02:57:37;100136.38;;;23.17;51.69
49063;BME280;34876;51.464;-0.150;2022-09-09T03:00:08;100138.65;;;23.18;51.67
49063;BME280;34876;51.464;-0.150;2022-09-09T03:02:37;100142.85;;;23.16;51.69
49063;BME280;34876;51.464;-0.150;2022-09-09T03:05:06;100141.99;;;23.15;51.72
49063;BME280;34876;51.464;-0.150;2022-09-09T03:07:35;100146.26;;;23.16;51.72
49063;BME280;34876;51.464;-0.150;2022-09-09T03:10:05;100143.90;;;23.17;51.68
49063;BME280;34876;51.464;-0.150;2022-09-09T03:12:34;100145.68;;;23.17;51.68
49063;BME280;34876;51.464;-0.150;2022-09-09T03:15:03;100147.43;;;23.15;51.69
49063;BME280;34876;51.464;-0.150;2022-09-09T03:17:32;100145.50;;;23.16;51.68
49063;BME280;34876;51.464;-0.150;2022-09-09T03:20:02;100145.83;;;23.16;51.66
49063;BME280;34876;51.464;-0.150;2022-09-09T03:22:31;100147.47;;;23.14;51.72
49063;BME280;34876;51.464;-0.150;2022-09-09T03:24:59;100145.87;;;23.15;51.72
49063;BME280;34876;51.464;-0.150;2022-09-09T03:27:29;100146.46;;;23.15;51.68
49063;BME280;34876;51.464;-0.150;2022-09-09T03:29:58;100149.07;;;23.15;51.69
49063;BME280;34876;51.464;-0.150;2022-09-09T03:32:28;100150.37;;;23.14;51.70
49063;BME280;34876;51.464;-0.150;2022-09-09T03:34:57;100152.69;;;23.15;51.71
49063;BME280;34876;51.464;-0.150;2022-09-09T03:37:26;100151.66;;;23.15;51.67
49063;BME280;34876;51.464;-0.150;2022-09-09T03:39:56;100154.88;;;23.14;51.68
49063;BME280;34876;51.464;-0.150;2022-09-09T03:42:25;100158.76;;;23.15;51.67
49063;BME280;34876;51.464;-0.150;2022-09-09T03:44:54;100159.65;;;23.12;51.72
49063;BME280;34876;51.464;-0.150;2022-09-09T03:47:23;100159.53;;;23.13;51.70
49063;BME280;34876;51.464;-0.150;2022-09-09T03:49:51;100158.17;;;23.14;51.69
49063;BME280;34876;51.464;-0.150;2022-09-09T03:52:20;100159.59;;;23.14;51.66
49063;BME280;34876;51.464;-0.150;2022-09-09T03:54:49;100165.65;;;23.12;51.71
49063;BME280;34876;51.464;-0.150;2022-09-09T03:57:19;100168.43;;;23.15;51.66
49063;BME280;34876;51.464;-0.150;2022-09-09T03:59:48;100165.19;;;23.15;51.64
49063;BME280;34876;51.464;-0.150;2022-09-09T04:02:17;100168.91;;;23.12;51.72
49063;BME280;34876;51.464;-0.150;2022-09-09T04:04:46;100168.43;;;23.11;51.72
49063;BME280;34876;51.464;-0.150;2022-09-09T04:07:15;100169.58;;;23.11;51.71
49063;BME280;34876;51.464;-0.150;2022-09-09T04:09:45;100174.91;;;23.12;51.70
49063;BME280;34876;51.464;-0.150;2022-09-09T04:12:13;100177.95;;;23.13;51.68
49063;BME280;34876;51.464;-0.150;2022-09-09T04:14:42;100174.10;;;23.12;51.68
49063;BME280;34876;51.464;-0.150;2022-09-09T04:17:11;100175.09;;;23.14;51.63
49063;BME280;34876;51.464;-0.150;2022-09-09T04:19:40;100179.01;;;23.12;51.68
49063;BME280;34876;51.464;-0.150;2022-09-09T04:22:09;100183.84;;;23.11;51.70
49063;BME280;34876;51.464;-0.150;2022-09-09T04:24:37;100187.15;;;23.10;51.71
49063;BME280;34876;51.464;-0.150;2022-09-09T04:27:06;100189.26;;;23.09;51.75
49063;BME280;34876;51.464;-0.150;2022-09-09T04:29:35;100191.17;;;23.08;51.79
49063;BME280;34876;51.464;-0.150;2022-09-09T04:32:04;100190.32;;;23.07;51.75
49063;BME280;34876;51.464;-0.150;2022-09-09T04:34:33;100194.72;;;23.08;51.76
49063;BME280;34876;51.464;-0.150;2022-09-09T04:37:02;100195.91;;;23.08;51.75
49063;BME280;34876;51.464;-0.150;2022-09-09T04:39:32;100197.63;;;23.08;51.75
49063;BME280;34876;51.464;-0.150;2022-09-09T04:42:01;100197.67;;;23.08;51.76
49063;BME280;34876;51.464;-0.150;2022-09-09T04:44:29;100202.25;;;23.08;51.70
49063;BME280;34876;51.464;-0.150;2022-09-09T04:46:58;100201.07;;;23.07;51.76
49063;BME280;34876;51.464;-0.150;2022-09-09T04:49:27;100202.91;;;23.07;51.75
49063;BME280;34876;51.464;-0.150;2022-09-09T04:51:56;100205.02;;;23.08;51.73
49063;BME280;34876;51.464;-0.150;2022-09-09T04:54:27;100206.90;;;23.08;51.70
49063;BME280;34876;51.464;-0.150;2022-09-09T04:56:56;100208.83;;;23.06;51.76
49063;BME280;34876;51.464;-0.150;2022-09-09T04:59:25;100209.40;;;23.05;51.78
49063;BME280;34876;51.464;-0.150;2022-09-09T05:01:54;100211.14;;;23.06;51.76
49063;BME280;34876;51.464;-0.150;2022-09-09T05:04:22;100209.86;;;23.04;51.78
49063;BME280;34876;51.464;-0.150;2022-09-09T05:06:51;100212.13;;;23.05;51.75
49063;BME280;34876;51.464;-0.150;2022-09-09T05:09:20;100217.00;;;23.04;51.78
49063;BME280;34876;51.464;-0.150;2022-09-09T05:11:49;100221.29;;;23.06;51.72
49063;BME280;34876;51.464;-0.150;2022-09-09T05:14:18;100225.25;;;23.06;51.71
49063;BME280;34876;51.464;-0.150;2022-09-09T05:16:47;100227.96;;;23.05;51.74
49063;BME280;34876;51.464;-0.150;2022-09-09T05:19:16;100231.43;;;23.04;51.77
49063;BME280;34876;51.464;-0.150;2022-09-09T05:21:45;100234.85;;;23.05;51.74
49063;BME280;34876;51.464;-0.150;2022-09-09T05:24:14;100238.83;;;23.04;51.75
49063;BME280;34876;51.464;-0.150;2022-09-09T05:26:43;100240.53;;;23.03;51.77
49063;BME280;34876;51.464;-0.150;2022-09-09T05:29:12;100238.95;;;23.04;51.72
49063;BME280;34876;51.464;-0.150;2022-09-09T05:31:41;100242.12;;;23.05;51.72
49063;BME280;34876;51.464;-0.150;2022-09-09T05:34:10;100247.55;;;23.05;51.69
49063;BME280;34876;51.464;-0.150;2022-09-09T05:36:38;100249.82;;;23.03;51.75
49063;BME280;34876;51.464;-0.150;2022-09-09T05:39:07;100254.35;;;23.03;51.73
49063;BME280;34876;51.464;-0.150;2022-09-09T05:41:36;100253.13;;;23.02;51.76
49063;BME280;34876;51.464;-0.150;2022-09-09T05:44:05;100257.25;;;23.02;51.75
49063;BME280;34876;51.464;-0.150;2022-09-09T05:46:33;100260.85;;;23.02;51.75
49063;BME280;34876;51.464;-0.150;2022-09-09T05:49:03;100263.34;;;23.03;51.76
49063;BME280;34876;51.464;-0.150;2022-09-09T05:51:33;100266.57;;;23.02;51.76
49063;BME280;34876;51.464;-0.150;2022-09-09T05:54:01;100270.68;;;23.02;51.73
49063;BME280;34876;51.464;-0.150;2022-09-09T05:56:30;100273.11;;;23.00;51.81
49063;BME280;34876;51.464;-0.150;2022-09-09T05:58:59;100275.30;;;23.01;51.77
49063;BME280;34876;51.464;-0.150;2022-09-09T06:01:30;100277.79;;;23.01;51.79
49063;BME280;34876;51.464;-0.150;2022-09-09T06:04:00;100281.24;;;22.99;51.83
49063;BME280;34876;51.464;-0.150;2022-09-09T06:06:32;100284.27;;;23.02;51.72
49063;BME280;34876;51.464;-0.150;2022-09-09T06:09:02;100288.18;;;23.02;51.71
49063;BME280;34876;51.464;-0.150;2022-09-09T06:11:31;100287.69;;;23.02;51.71
49063;BME280;34876;51.464;-0.150;2022-09-09T06:14:00;100287.38;;;23.01;51.75
49063;BME280;34876;51.464;-0.150;2022-09-09T06:16:30;100291.26;;;23.01;51.77
49063;BME280;34876;51.464;-0.150;2022-09-09T06:19:00;100291.28;;;23.00;51.78
49063;BME280;34876;51.464;-0.150;2022-09-09T06:21:31;100294.97;;;23.00;51.79
49063;BME280;34876;51.464;-0.150;2022-09-09T06:24:01;100296.90;;;23.01;51.74
49063;BME280;34876;51.464;-0.150;2022-09-09T06:26:32;100299.08;;;23.01;51.72
49063;BME280;34876;51.464;-0.150;2022-09-09T06:29:03;100300.73;;;23.00;51.72
49063;BME280;34876;51.464;-0.150;2022-09-09T06:31:35;100303.08;;;23.01;51.67
49063;BME280;34876;51.464;-0.150;2022-09-09T06:34:06;100307.79;;;23.00;51.71
49063;BME280;34876;51.464;-0.150;2022-09-09T06:36:37;100311.39;;;23.00;51.67
49063;BME280;34876;51.464;-0.150;2022-09-09T06:39:07;100310.97;;;23.00;51.66
49063;BME280;34876;51.464;-0.150;2022-09-09T06:41:36;100312.85;;;22.99;51.68
49063;BME280;34876;51.464;-0.150;2022-09-09T06:44:05;100313.58;;;22.98;51.76
49063;BME280;34876;51.464;-0.150;2022-09-09T06:46:34;100315.25;;;22.97;51.74
49063;BME280;34876;51.464;-0.150;2022-09-09T06:49:03;100315.15;;;23.00;51.70
49063;BME280;34876;51.464;-0.150;2022-09-09T06:51:34;100314.40;;;23.01;51.64
49063;BME280;34876;51.464;-0.150;2022-09-09T06:54:04;100314.93;;;23.32;50.80
49063;BME280;34876;51.464;-0.150;2022-09-09T06:56:35;100316.73;;;23.12;51.35
49063;BME280;34876;51.464;-0.150;2022-09-09T06:59:05;100320.28;;;23.06;51.60
49063;BME280;34876;51.464;-0.150;2022-09-09T07:01:37;100323.24;;;23.04;51.61
49063;BME280;34876;51.464;-0.150;2022-09-09T07:04:07;100328.89;;;23.01;51.74
49063;BME280;34876;51.464;-0.150;2022-09-09T07:06:39;100333.38;;;23.00;51.95
49063;BME280;34876;51.464;-0.150;2022-09-09T07:09:09;100338.99;;;23.01;51.93
49063;BME280;34876;51.464;-0.150;2022-09-09T07:11:41;100341.68;;;23.01;51.82
49063;BME280;34876;51.464;-0.150;2022-09-09T07:14:11;100342.09;;;23.04;51.67
49063;BME280;34876;51.464;-0.150;2022-09-09T07:16:42;100344.88;;;23.02;51.72
49063;BME280;34876;51.464;-0.150;2022-09-09T07:19:12;100350.42;;;23.05;51.62
49063;BME280;34876;51.464;-0.150;2022-09-09T07:21:42;100353.09;;;23.00;51.67
49063;BME280;34876;51.464;-0.150;2022-09-09T07:24:14;100358.90;;;23.04;51.56
49063;BME280;34876;51.464;-0.150;2022-09-09T07:26:44;100360.56;;;23.04;51.53
49063;BME280;34876;51.464;-0.150;2022-09-09T07:29:13;100366.15;;;23.03;51.52
49063;BME280;34876;51.464;-0.150;2022-09-09T07:31:41;100371.08;;;23.03;51.50
49063;BME280;34876;51.464;-0.150;2022-09-09T07:34:10;100374.67;;;23.02;51.47
49063;BME280;34876;51.464;-0.150;2022-09-09T07:36:40;100375.97;;;22.97;51.60
49063;BME280;34876;51.464;-0.150;2022-09-09T07:39:11;100382.79;;;23.00;51.55
49063;BME280;34876;51.464;-0.150;2022-09-09T07:41:42;100385.97;;;23.01;51.58
49063;BME280;34876;51.464;-0.150;2022-09-09T07:44:15;100388.95;;;23.03;51.47
49063;BME280;34876;51.464;-0.150;2022-09-09T07:46:45;100392.50;;;23.05;51.36
49063;BME280;34876;51.464;-0.150;2022-09-09T07:49:14;100395.63;;;23.03;51.37
49063;BME280;34876;51.464;-0.150;2022-09-09T07:51:46;100400.63;;;23.04;51.34
49063;BME280;34876;51.464;-0.150;2022-09-09T07:54:17;100398.54;;;23.06;51.26
49063;BME280;34876;51.464;-0.150;2022-09-09T07:56:46;100397.77;;;23.05;51.25
49063;BME280;34876;51.464;-0.150;2022-09-09T07:59:15;100400.70;;;23.14;51.08
49063;BME280;34876;51.464;-0.150;2022-09-09T08:01:46;100402.39;;;23.26;50.68
49063;BME280;34876;51.464;-0.150;2022-09-09T08:04:17;100407.31;;;23.23;50.74
49063;BME280;34876;51.464;-0.150;2022-09-09T08:06:49;100408.24;;;23.19;50.83
49063;BME280;34876;51.464;-0.150;2022-09-09T08:09:20;100408.46;;;23.11;51.03
49063;BME280;34876;51.464;-0.150;2022-09-09T08:11:49;100410.78;;;23.20;50.81
49063;BME280;34876;51.464;-0.150;2022-09-09T08:14:18;100413.53;;;23.15;50.94
49063;BME280;34876;51.464;-0.150;2022-09-09T08:16:48;100416.50;;;23.12;50.98
49063;BME280;34876;51.464;-0.150;2022-09-09T08:19:17;100418.74;;;23.11;50.99
49063;BME280;34876;51.464;-0.150;2022-09-09T08:21:46;100423.61;;;23.09;51.05
49063;BME280;34876;51.464;-0.150;2022-09-09T08:24:16;100427.40;;;23.09;51.10
49063;BME280;34876;51.464;-0.150;2022-09-09T08:26:46;100430.19;;;23.09;51.18
49063;BME280;34876;51.464;-0.150;2022-09-09T08:29:16;100434.89;;;23.07;51.30
49063;BME280;34876;51.464;-0.150;2022-09-09T08:31:48;100445.04;;;23.09;51.18
49063;BME280;34876;51.464;-0.150;2022-09-09T08:34:17;100452.08;;;23.05;51.25
49063;BME280;34876;51.464;-0.150;2022-09-09T08:36:47;100456.12;;;22.96;51.56
49063;BME280;34876;51.464;-0.150;2022-09-09T08:39:18;100460.36;;;23.03;51.36
49063;BME280;34876;51.464;-0.150;2022-09-09T08:42:14;100457.52;;;23.02;51.33
49063;BME280;34876;51.464;-0.150;2022-09-09T08:44:56;100462.25;;;23.00;51.36
49063;BME280;34876;51.464;-0.150;2022-09-09T08:47:36;100467.41;;;22.93;51.59
49063;BME280;34876;51.464;-0.150;2022-09-09T08:50:18;100470.79;;;22.93;51.70
49063;BME280;34876;51.464;-0.150;2022-09-09T08:52:53;100471.42;;;22.98;51.53
49063;BME280;34876;51.464;-0.150;2022-09-09T08:55:31;100477.27;;;22.99;51.57
49063;BME280;34876;51.464;-0.150;2022-09-09T08:58:09;100482.82;;;22.96;51.59
49063;BME280;34876;51.464;-0.150;2022-09-09T09:00:52;100488.50;;;22.98;51.56
49063;BME280;34876;51.464;-0.150;2022-09-09T09:03:30;100489.68;;;22.96;51.36
49063;BME280;34876;51.464;-0.150;2022-09-09T09:06:09;100498.41;;;23.03;51.44
49063;BME280;34876;51.464;-0.150;2022-09-09T09:08:46;100499.71;;;23.01;51.48
49063;BME280;34876;51.464;-0.150;2022-09-09T09:11:17;100505.39;;;22.90;51.77
49063;BME280;34876;51.464;-0.150;2022-09-09T09:13:50;100508.64;;;22.99;51.46
49063;BME280;34876;51.464;-0.150;2022-09-09T09:16:27;100511.25;;;22.91;51.67
49063;BME280;34876;51.464;-0.150;2022-09-09T09:18:58;100513.55;;;22.98;51.42
49063;BME280;34876;51.464;-0.150;2022-09-09T09:21:35;100515.64;;;23.00;51.33
49063;BME280;34876;51.464;-0.150;2022-09-09T09:24:13;100519.51;;;23.02;51.26
49063;BME280;34876;51.464;-0.150;2022-09-09T09:26:45;100525.11;;;23.02;51.25
49063;BME280;34876;51.464;-0.150;2022-09-09T09:29:15;100529.09;;;23.01;51.22
49063;BME280;34876;51.464;-0.150;2022-09-09T09:31:48;100529.87;;;22.97;51.34
49063;BME280;34876;51.464;-0.150;2022-09-09T09:34:18;100530.09;;;22.97;51.34
49063;BME280;34876;51.464;-0.150;2022-09-09T09:36:53;100534.77;;;22.99;51.38
49063;BME280;34876;51.464;-0.150;2022-09-09T09:39:24;100536.92;;;22.99;51.36
49063;BME280;34876;51.464;-0.150;2022-09-09T09:41:54;100539.51;;;22.99;51.32
49063;BME280;34876;51.464;-0.150;2022-09-09T09:44:25;100540.40;;;22.98;51.32
49063;BME280;34876;51.464;-0.150;2022-09-09T09:47:06;100541.18;;;22.99;51.25
49063;BME280;34876;51.464;-0.150;2022-09-09T09:49:35;100543.37;;;23.00;51.18
49063;BME280;34876;51.464;-0.150;2022-09-09T09:52:05;100545.87;;;23.00;51.19
49063;BME280;34876;51.464;-0.150;2022-09-09T09:54:38;100547.85;;;23.00;51.34
49063;BME280;34876;51.464;-0.150;2022-09-09T09:57:25;100551.01;;;23.02;51.19
49063;BME280;34876;51.464;-0.150;2022-09-09T10:00:12;100551.52;;;23.02;51.20
49063;BME280;34876;51.464;-0.150;2022-09-09T10:02:43;100554.11;;;23.02;51.17
49063;BME280;34876;51.464;-0.150;2022-09-09T10:05:19;100554.59;;;23.01;51.16
49063;BME280;34876;51.464;-0.150;2022-09-09T10:08:01;100558.65;;;22.95;51.46
49063;BME280;34876;51.464;-0.150;2022-09-09T10:10:39;100556.91;;;23.00;51.32
49063;BME280;34876;51.464;-0.150;2022-09-09T10:13:15;100556.91;;;23.01;51.32
49063;BME280;34876;51.464;-0.150;2022-09-09T10:15:56;100556.84;;;23.02;51.27
49063;BME280;34876;51.464;-0.150;2022-09-09T10:18:39;100559.28;;;23.05;51.16
49063;BME280;34876;51.464;-0.150;2022-09-09T10:21:21;100561.92;;;23.02;51.23
49063;BME280;34876;51.464;-0.150;2022-09-09T10:24:05;100565.00;;;23.03;51.14
49063;BME280;34876;51.464;-0.150;2022-09-09T10:26:47;100565.46;;;22.93;51.46
49063;BME280;34876;51.464;-0.150;2022-09-09T10:29:44;100568.84;;;23.02;51.19
49063;BME280;34876;51.464;-0.150;2022-09-09T10:32:33;100568.93;;;23.05;51.12
49063;BME280;34876;51.464;-0.150;2022-09-09T10:35:11;100567.29;;;23.06;51.12
49063;BME280;34876;51.464;-0.150;2022-09-09T10:37:48;100572.37;;;23.02;51.22
49063;BME280;34876;51.464;-0.150;2022-09-09T10:40:27;100577.95;;;23.00;51.35
49063;BME280;34876;51.464;-0.150;2022-09-09T10:43:09;100581.68;;;23.02;51.30
49063;BME280;34876;51.464;-0.150;2022-09-09T10:45:50;100583.71;;;23.02;51.24
49063;BME280;34876;51.464;-0.150;2022-09-09T10:48:30;100588.23;;;22.99;51.31
49063;BME280;34876;51.464;-0.150;2022-09-09T10:51:11;100589.98;;;23.02;51.24
49063;BME280;34876;51.464;-0.150;2022-09-09T10:53:52;100588.57;;;22.99;51.33
49063;BME280;34876;51.464;-0.150;2022-09-09T10:56:24;100586.36;;;23.02;51.24
49063;BME280;34876;51.464;-0.150;2022-09-09T10:58:58;100588.84;;;23.02;51.22
49063;BME280;34876;51.464;-0.150;2022-09-09T11:01:33;100587.67;;;22.97;51.38
49063;BME280;34876;51.464;-0.150;2022-09-09T11:04:10;100587.16;;;22.97;51.49
49063;BME280;34876;51.464;-0.150;2022-09-09T11:06:45;100586.76;;;23.04;51.27
49063;BME280;34876;51.464;-0.150;2022-09-09T11:09:20;100590.98;;;23.04;51.39
49063;BME280;34876;51.464;-0.150;2022-09-09T11:11:53;100587.00;;;23.02;51.36
49063;BME280;34876;51.464;-0.150;2022-09-09T11:14:28;100592.88;;;23.01;51.40
49063;BME280;34876;51.464;-0.150;2022-09-09T11:17:00;100592.94;;;23.04;51.32
49063;BME280;34876;51.464;-0.150;2022-09-09T11:19:34;100593.22;;;23.04;51.31
49063;BME280;34876;51.464;-0.150;2022-09-09T11:22:07;100597.23;;;23.08;51.14
49063;BME280;34876;51.464;-0.150;2022-09-09T11:24:45;100601.97;;;23.10;51.12
49063;BME280;34876;51.464;-0.150;2022-09-09T11:27:20;100603.12;;;23.10;51.12
49063;BME280;34876;51.464;-0.150;2022-09-09T11:30:16;100600.56;;;23.03;51.44
49063;BME280;34876;51.464;-0.150;2022-09-09T11:33:31;100600.18;;;23.05;51.64
49063;BME280;34876;51.464;-0.150;2022-09-09T11:36:24;100601.89;;;23.06;51.28
49063;BME280;34876;51.464;-0.150;2022-09-09T11:38:59;100604.08;;;23.09;51.18
49063;BME280;34876;51.464;-0.150;2022-09-09T11:41:37;100606.55;;;23.05;51.41
49063;BME280;34876;51.464;-0.150;2022-09-09T11:44:11;100606.39;;;23.05;51.43
49063;BME280;34876;51.464;-0.150;2022-09-09T11:46:41;100609.14;;;23.03;51.52
49063;BME280;34876;51.464;-0.150;2022-09-09T11:49:29;100608.73;;;23.06;51.40
49063;BME280;34876;51.464;-0.150;2022-09-09T11:52:11;100608.66;;;23.09;51.31
49063;BME280;34876;51.464;-0.150;2022-09-09T11:54:47;100610.10;;;23.11;51.27
49063;BME280;34876;51.464;-0.150;2022-09-09T11:57:25;100611.72;;;23.14;51.18
49063;BME280;34876;51.464;-0.150;2022-09-09T11:59:54;100611.25;;;22.88;51.86
49063;BME280;34876;51.464;-0.150;2022-09-09T12:02:25;100612.70;;;22.80;52.09
49063;BME280;34876;51.464;-0.150;2022-09-09T12:04:59;100616.67;;;23.04;51.35
49063;BME280;34876;51.464;-0.150;2022-09-09T12:07:34;100616.41;;;23.09;51.14
49063;BME280;34876;51.464;-0.150;2022-09-09T12:10:22;100615.01;;;23.02;51.29
49063;BME280;34876;51.464;-0.150;2022-09-09T12:12:51;100616.07;;;23.13;50.99
49063;BME280;34876;51.464;-0.150;2022-09-09T12:15:25;100615.69;;;23.15;50.67
49063;BME280;34876;51.464;-0.150;2022-09-09T12:17:56;100615.05;;;23.11;50.99
49063;BME280;34876;51.464;-0.150;2022-09-09T12:20:31;100616.01;;;23.18;50.78
49063;BME280;34876;51.464;-0.150;2022-09-09T12:23:12;100611.18;;;23.24;50.58
49063;BME280;34876;51.464;-0.150;2022-09-09T12:25:56;100613.30;;;23.26;50.50
49063;BME280;34876;51.464;-0.150;2022-09-09T12:28:40;100613.33;;;23.23;50.57
49063;BME280;34876;51.464;-0.150;2022-09-09T12:31:15;100612.58;;;23.28;50.45
49063;BME280;34876;51.464;-0.150;2022-09-09T12:33:46;100611.31;;;23.27;50.45
49063;BME280;34876;51.464;-0.150;2022-09-09T12:36:18;100609.92;;;23.19;50.84
49063;BME280;34876;51.464;-0.150;2022-09-09T12:38:48;100606.70;;;23.01;51.20
49063;BME280;34876;51.464;-0.150;2022-09-09T12:41:20;100605.46;;;23.03;51.11
49063;BME280;34876;51.464;-0.150;2022-09-09T12:43:50;100603.88;;;23.09;50.92
49063;BME280;34876;51.464;-0.150;2022-09-09T12:46:26;100607.29;;;22.90;50.27
49063;BME280;34876;51.464;-0.150;2022-09-09T12:48:57;100609.92;;;22.62;52.20
49063;BME280;34876;51.464;-0.150;2022-09-09T12:51:29;100612.20;;;22.96;50.88
49063;BME280;34876;51.464;-0.150;2022-09-09T12:53:59;100609.36;;;23.14;50.82
49063;BME280;34876;51.464;-0.150;2022-09-09T12:56:31;100610.82;;;23.16;50.76
49063;BME280;34876;51.464;-0.150;2022-09-09T12:59:00;100612.89;;;23.06;51.01
49063;BME280;34876;51.464;-0.150;2022-09-09T13:01:31;100612.26;;;23.04;50.54
49063;BME280;34876;51.464;-0.150;2022-09-09T13:04:00;100610.24;;;22.88;50.55
49063;BME280;34876;51.464;-0.150;2022-09-09T13:06:31;100610.80;;;23.09;50.87
49063;BME280;34876;51.464;-0.150;2022-09-09T13:09:02;100612.60;;;23.07;50.94
49063;BME280;34876;51.464;-0.150;2022-09-09T13:11:37;100605.56;;;23.04;50.85
49063;BME280;34876;51.464;-0.150;2022-09-09T13:14:15;100609.54;;;23.18;50.63